sensor_id;sensor_type;location;lat;lon;timestamp;pressure;altitude;pressure_sealevel;temperature;humidity
68137;BME280;54939;50.826;9.030;2023-04-25T00:00:20;97894.53;;;16.04;55.61
68137;BME280;54939;50.826;9.030;2023-04-25T00:00:50;97902.41;;;16.06;55.61
68137;BME280;54939;50.826;9.030;2023-04-25T00:01:22;97898.88;;;16.05;55.58
68137;BME280;54939;50.826;9.030;2023-04-25T00:01:52;97891.84;;;16.04;55.61
68137;BME280;54939;50.826;9.030;2023-04-25T00:02:22;97893.72;;;16.04;55.43
68137;BME280;54939;50.826;9.030;2023-04-25T00:02:53;97894.53;;;16.04;55.58
68137;BME280;54939;50.826;9.030;2023-04-25T00:03:23;97892.91;;;16.03;55.52
68137;BME280;54939;50.826;9.030;2023-04-25T00:03:55;97898.28;;;16.03;55.64
68137;BME280;54939;50.826;9.030;2023-04-25T00:04:25;97893.94;;;16.02;55.51
68137;BME280;54939;50.826;9.030;2023-04-25T00:04:57;97903.69;;;16.03;55.43
68137;BME280;54939;50.826;9.030;2023-04-25T00:05:28;97901.81;;;16.04;55.51
68137;BME280;54939;50.826;9.030;2023-04-25T00:05:59;97896.63;;;16.02;55.63
68137;BME280;54939;50.826;9.030;2023-04-25T00:06:32;97897.47;;;16.03;55.24
68137;BME280;54939;50.826;9.030;2023-04-25T00:07:02;97907.19;;;16.04;55.42
68137;BME280;54939;50.826;9.030;2023-04-25T00:07:33;97902.84;;;16.03;55.36
68137;BME280;54939;50.826;9.030;2023-04-25T00:08:03;97894.75;;;16.03;55.39
68137;BME280;54939;50.826;9.030;2023-04-25T00:08:34;97903.69;;;16.03;55.33
68137;BME280;54939;50.826;9.030;2023-04-25T00:09:04;97904.50;;;16.04;55.55
68137;BME280;54939;50.826;9.030;2023-04-25T00:09:37;97900.97;;;16.03;55.29
68137;BME280;54939;50.826;9.030;2023-04-25T00:10:08;97900.97;;;16.03;55.36
68137;BME280;54939;50.826;9.030;2023-04-25T00:10:38;97904.50;;;16.04;55.26
68137;BME280;54939;50.826;9.030;2023-04-25T00:11:08;97902.59;;;16.04;55.19
68137;BME280;54939;50.826;9.030;2023-04-25T00:11:39;97903.69;;;16.03;55.46
68137;BME280;54939;50.826;9.030;2023-04-25T00:12:10;97896.44;;;16.04;55.35
68137;BME280;54939;50.826;9.030;2023-04-25T00:12:40;97894.75;;;16.03;55.23
68137;BME280;54939;50.826;9.030;2023-04-25T00:13:11;97898.28;;;16.03;55.38
68137;BME280;54939;50.826;9.030;2023-04-25T00:13:41;97895.59;;;16.03;55.55
68137;BME280;54939;50.826;9.030;2023-04-25T00:14:11;97904.69;;;16.02;55.40
68137;BME280;54939;50.826;9.030;2023-04-25T00:14:42;97900.16;;;16.03;55.24
68137;BME280;54939;50.826;9.030;2023-04-25T00:15:12;97896.00;;;16.00;55.42
68137;BME280;54939;50.826;9.030;2023-04-25T00:15:42;97901.19;;;16.02;55.49
68137;BME280;54939;50.826;9.030;2023-04-25T00:16:12;97904.06;;;16.00;55.44
68137;BME280;54939;50.826;9.030;2023-04-25T00:16:45;97901.19;;;16.02;55.26
68137;BME280;54939;50.826;9.030;2023-04-25T00:17:15;97895.78;;;16.02;55.37
68137;BME280;54939;50.826;9.030;2023-04-25T00:17:46;97898.50;;;16.02;55.38
68137;BME280;54939;50.826;9.030;2023-04-25T00:18:17;97899.72;;;15.99;55.16
68137;BME280;54939;50.826;9.030;2023-04-25T00:18:47;97897.03;;;15.99;55.58
68137;BME280;54939;50.826;9.030;2023-04-25T00:19:21;97898.69;;;16.00;55.46
68137;BME280;54939;50.826;9.030;2023-04-25T00:19:51;97898.69;;;16.00;55.12
68137;BME280;54939;50.826;9.030;2023-04-25T00:20:22;97894.13;;;16.01;55.45
68137;BME280;54939;50.826;9.030;2023-04-25T00:20:53;97903.25;;;16.00;55.23
68137;BME280;54939;50.826;9.030;2023-04-25T00:21:23;97897.84;;;16.00;55.23
68137;BME280;54939;50.826;9.030;2023-04-25T00:21:54;97898.69;;;16.00;55.25
68137;BME280;54939;50.826;9.030;2023-04-25T00:22:24;97894.34;;;15.99;55.38
68137;BME280;54939;50.826;9.030;2023-04-25T00:22:54;97895.16;;;16.00;55.38
68137;BME280;54939;50.826;9.030;2023-04-25T00:23:25;97899.72;;;15.99;55.23
68137;BME280;54939;50.826;9.030;2023-04-25T00:23:56;97893.50;;;15.99;55.25
68137;BME280;54939;50.826;9.030;2023-04-25T00:24:26;97905.94;;;16.00;55.53
68137;BME280;54939;50.826;9.030;2023-04-25T00:24:56;97905.09;;;15.99;55.38
68137;BME280;54939;50.826;9.030;2023-04-25T00:25:29;97898.69;;;16.00;55.14
68137;BME280;54939;50.826;9.030;2023-04-25T00:26:00;97903.25;;;16.00;55.27
68137;BME280;54939;50.826;9.030;2023-04-25T00:26:30;97908.44;;;16.01;55.22
68137;BME280;54939;50.826;9.030;2023-04-25T00:27:00;97905.72;;;16.01;54.98
68137;BME280;54939;50.826;9.030;2023-04-25T00:27:30;97905.72;;;16.01;55.10
68137;BME280;54939;50.826;9.030;2023-04-25T00:28:00;97912.78;;;16.02;55.10
68137;BME280;54939;50.826;9.030;2023-04-25T00:28:31;97905.72;;;16.01;55.29
68137;BME280;54939;50.826;9.030;2023-04-25T00:29:01;97906.75;;;16.00;55.06
68137;BME280;54939;50.826;9.030;2023-04-25T00:29:31;97905.72;;;16.01;55.11
68137;BME280;54939;50.826;9.030;2023-04-25T00:30:02;97908.63;;;16.00;55.08
68137;BME280;54939;50.826;9.030;2023-04-25T00:30:32;97897.84;;;16.00;55.26
68137;BME280;54939;50.826;9.030;2023-04-25T00:31:02;97897.03;;;15.99;55.04
68137;BME280;54939;50.826;9.030;2023-04-25T00:31:33;97897.66;;;16.01;54.99
68137;BME280;54939;50.826;9.030;2023-04-25T00:32:03;97911.13;;;16.01;54.99
68137;BME280;54939;50.826;9.030;2023-04-25T00:32:33;97905.72;;;16.01;55.01
68137;BME280;54939;50.826;9.030;2023-04-25T00:33:03;97904.06;;;16.00;55.00
68137;BME280;54939;50.826;9.030;2023-04-25T00:33:33;97904.06;;;16.00;55.26
68137;BME280;54939;50.826;9.030;2023-04-25T00:34:05;97910.28;;;16.01;55.05
68137;BME280;54939;50.826;9.030;2023-04-25T00:34:35;97905.09;;;15.99;55.02
68137;BME280;54939;50.826;9.030;2023-04-25T00:35:06;97907.81;;;15.99;55.15
68137;BME280;54939;50.826;9.030;2023-04-25T00:35:36;97907.16;;;15.97;55.33
68137;BME280;54939;50.826;9.030;2023-04-25T00:36:06;97908.81;;;15.98;55.11
68137;BME280;54939;50.826;9.030;2023-04-25T00:36:37;97913.19;;;15.99;55.21
68137;BME280;54939;50.826;9.030;2023-04-25T00:37:07;97908.00;;;15.98;55.04
68137;BME280;54939;50.826;9.030;2023-04-25T00:37:38;97908.63;;;16.00;55.06
68137;BME280;54939;50.826;9.030;2023-04-25T00:38:08;97902.41;;;15.99;55.16
68137;BME280;54939;50.826;9.030;2023-04-25T00:38:38;97898.06;;;15.98;55.06
68137;BME280;54939;50.826;9.030;2023-04-25T00:39:08;97902.63;;;15.98;55.00
68137;BME280;54939;50.826;9.030;2023-04-25T00:39:38;97903.44;;;15.98;55.02
68137;BME280;54939;50.826;9.030;2023-04-25T00:40:09;97908.00;;;15.98;55.15
68137;BME280;54939;50.826;9.030;2023-04-25T00:40:39;97912.34;;;15.99;55.05
68137;BME280;54939;50.826;9.030;2023-04-25T00:41:09;97905.31;;;15.98;55.19
68137;BME280;54939;50.826;9.030;2023-04-25T00:41:40;97906.38;;;15.97;55.21
68137;BME280;54939;50.826;9.030;2023-04-25T00:42:10;97900.97;;;15.97;55.20
68137;BME280;54939;50.826;9.030;2023-04-25T00:42:40;97902.63;;;15.98;55.27
68137;BME280;54939;50.826;9.030;2023-04-25T00:43:11;97902.63;;;15.98;55.17
68137;BME280;54939;50.826;9.030;2023-04-25T00:43:41;97909.84;;;15.97;55.19
68137;BME280;54939;50.826;9.030;2023-04-25T00:44:11;97903.44;;;15.98;55.27
68137;BME280;54939;50.826;9.030;2023-04-25T00:44:43;97903.44;;;15.98;55.38
68137;BME280;54939;50.826;9.030;2023-04-25T00:45:15;97908.00;;;15.98;55.25
68137;BME280;54939;50.826;9.030;2023-04-25T00:45:45;97903.44;;;15.98;55.35
68137;BME280;54939;50.826;9.030;2023-04-25T00:46:16;97901.78;;;15.97;55.36
68137;BME280;54939;50.826;9.030;2023-04-25T00:46:47;97901.78;;;15.97;55.28
68137;BME280;54939;50.826;9.030;2023-04-25T00:47:18;97903.44;;;15.98;55.32
68137;BME280;54939;50.826;9.030;2023-04-25T00:47:48;97901.78;;;15.97;55.45
68137;BME280;54939;50.826;9.030;2023-04-25T00:48:21;97900.97;;;15.97;55.45
68137;BME280;54939;50.826;9.030;2023-04-25T00:48:51;97904.47;;;15.97;55.31
68137;BME280;54939;50.826;9.030;2023-04-25T00:49:22;97900.16;;;15.96;55.27
68137;BME280;54939;50.826;9.030;2023-04-25T00:49:52;97897.47;;;15.96;55.31
68137;BME280;54939;50.826;9.030;2023-04-25T00:50:23;97899.31;;;15.96;55.39
68137;BME280;54939;50.826;9.030;2023-04-25T00:50:54;97896.41;;;15.97;55.53
68137;BME280;54939;50.826;9.030;2023-04-25T00:51:25;97902.00;;;15.96;55.37
68137;BME280;54939;50.826;9.030;2023-04-25T00:51:55;97900.97;;;15.97;55.53
68137;BME280;54939;50.826;9.030;2023-04-25T00:52:26;97897.47;;;15.96;55.47
68137;BME280;54939;50.826;9.030;2023-04-25T00:52:56;97892.91;;;15.97;55.54
68137;BME280;54939;50.826;9.030;2023-04-25T00:53:27;97896.63;;;15.96;55.36
68137;BME280;54939;50.826;9.030;2023-04-25T00:53:57;97895.59;;;15.97;55.59
68137;BME280;54939;50.826;9.030;2023-04-25T00:54:28;97895.81;;;15.95;55.52
68137;BME280;54939;50.826;9.030;2023-04-25T00:55:00;97893.72;;;15.97;55.53
68137;BME280;54939;50.826;9.030;2023-04-25T00:55:30;97895.59;;;15.97;55.52
68137;BME280;54939;50.826;9.030;2023-04-25T00:56:01;97891.25;;;15.96;55.47
68137;BME280;54939;50.826;9.030;2023-04-25T00:56:31;97895.81;;;15.95;55.46
68137;BME280;54939;50.826;9.030;2023-04-25T00:57:01;97894.78;;;15.96;55.60
68137;BME280;54939;50.826;9.030;2023-04-25T00:57:32;97891.25;;;15.96;55.40
68137;BME280;54939;50.826;9.030;2023-04-25T00:58:02;97887.72;;;15.95;55.41
68137;BME280;54939;50.826;9.030;2023-04-25T00:58:32;97893.09;;;15.95;55.61
68137;BME280;54939;50.826;9.030;2023-04-25T00:59:02;97889.59;;;15.95;55.59
68137;BME280;54939;50.826;9.030;2023-04-25T00:59:33;97890.41;;;15.95;55.44
68137;BME280;54939;50.826;9.030;2023-04-25T01:00:04;97889.38;;;15.96;55.42
68137;BME280;54939;50.826;9.030;2023-04-25T01:00:36;97892.06;;;15.96;55.42
68137;BME280;54939;50.826;9.030;2023-04-25T01:01:06;97885.03;;;15.95;55.42
68137;BME280;54939;50.826;9.030;2023-04-25T01:01:38;97892.28;;;15.95;55.60
68137;BME280;54939;50.826;9.030;2023-04-25T01:02:09;97892.28;;;15.95;55.55
68137;BME280;54939;50.826;9.030;2023-04-25T01:02:39;97885.03;;;15.95;55.45
68137;BME280;54939;50.826;9.030;2023-04-25T01:03:09;97890.41;;;15.95;55.58
68137;BME280;54939;50.826;9.030;2023-04-25T01:03:40;97893.09;;;15.95;55.59
68137;BME280;54939;50.826;9.030;2023-04-25T01:04:10;97893.09;;;15.95;55.62
68137;BME280;54939;50.826;9.030;2023-04-25T01:04:40;97893.09;;;15.95;55.59
68137;BME280;54939;50.826;9.030;2023-04-25T01:05:11;97896.63;;;15.96;55.47
68137;BME280;54939;50.826;9.030;2023-04-25T01:05:42;97892.28;;;15.95;55.50
68137;BME280;54939;50.826;9.030;2023-04-25T01:06:13;97903.88;;;15.95;55.60
68137;BME280;54939;50.826;9.030;2023-04-25T01:06:43;97895.81;;;15.95;55.56
68137;BME280;54939;50.826;9.030;2023-04-25T01:07:14;97894.13;;;15.94;55.63
68137;BME280;54939;50.826;9.030;2023-04-25T01:07:45;97898.50;;;15.95;55.47
68137;BME280;54939;50.826;9.030;2023-04-25T01:08:15;97898.50;;;15.95;55.53
68137;BME280;54939;50.826;9.030;2023-04-25T01:08:45;97900.34;;;15.95;55.47
68137;BME280;54939;50.826;9.030;2023-04-25T01:09:16;97897.66;;;15.95;55.53
68137;BME280;54939;50.826;9.030;2023-04-25T01:09:46;97905.94;;;15.93;55.65
68137;BME280;54939;50.826;9.030;2023-04-25T01:10:16;97893.31;;;15.94;55.55
68137;BME280;54939;50.826;9.030;2023-04-25T01:10:46;97897.66;;;15.95;55.79
68137;BME280;54939;50.826;9.030;2023-04-25T01:11:17;97912.16;;;15.94;55.50
68137;BME280;54939;50.826;9.030;2023-04-25T01:11:48;97902.41;;;15.93;55.66
68137;BME280;54939;50.826;9.030;2023-04-25T01:12:18;97898.69;;;15.94;55.47
68137;BME280;54939;50.826;9.030;2023-04-25T01:12:48;97899.53;;;15.94;55.54
68137;BME280;54939;50.826;9.030;2023-04-25T01:13:18;97903.88;;;15.95;55.67
68137;BME280;54939;50.826;9.030;2023-04-25T01:13:49;97899.53;;;15.94;55.57
68137;BME280;54939;50.826;9.030;2023-04-25T01:14:20;97900.34;;;15.95;55.46
68137;BME280;54939;50.826;9.030;2023-04-25T01:14:50;97903.25;;;15.93;55.60
68137;BME280;54939;50.826;9.030;2023-04-25T01:15:20;97904.91;;;15.94;55.52
68137;BME280;54939;50.826;9.030;2023-04-25T01:15:50;97898.69;;;15.94;55.69
68137;BME280;54939;50.826;9.030;2023-04-25T01:16:20;97904.06;;;15.94;55.63
68137;BME280;54939;50.826;9.030;2023-04-25T01:16:53;97897.88;;;15.93;55.67
68137;BME280;54939;50.826;9.030;2023-04-25T01:17:24;97905.94;;;15.93;55.48
68137;BME280;54939;50.826;9.030;2023-04-25T01:17:54;97906.78;;;15.94;55.52
68137;BME280;54939;50.826;9.030;2023-04-25T01:18:25;97904.06;;;15.94;55.49
68137;BME280;54939;50.826;9.030;2023-04-25T01:18:55;97898.91;;;15.92;55.56
68137;BME280;54939;50.826;9.030;2023-04-25T01:19:26;97902.41;;;15.93;55.46
68137;BME280;54939;50.826;9.030;2023-04-25T01:19:56;97899.72;;;15.93;55.69
68137;BME280;54939;50.826;9.030;2023-04-25T01:20:26;97905.94;;;15.93;55.52
68137;BME280;54939;50.826;9.030;2023-04-25T01:21:03;97903.25;;;15.93;55.44
68137;BME280;54939;50.826;9.030;2023-04-25T01:21:36;97903.25;;;15.93;55.55
68137;BME280;54939;50.826;9.030;2023-04-25T01:22:06;97905.94;;;15.93;55.57
68137;BME280;54939;50.826;9.030;2023-04-25T01:22:37;97904.28;;;15.92;55.68
68137;BME280;54939;50.826;9.030;2023-04-25T01:23:08;97905.94;;;15.93;55.58
68137;BME280;54939;50.826;9.030;2023-04-25T01:23:39;97906.97;;;15.92;55.70
68137;BME280;54939;50.826;9.030;2023-04-25T01:24:10;97912.34;;;15.92;55.60
68137;BME280;54939;50.826;9.030;2023-04-25T01:24:40;97909.66;;;15.92;55.65
68137;BME280;54939;50.826;9.030;2023-04-25T01:25:11;97905.94;;;15.93;55.70
68137;BME280;54939;50.826;9.030;2023-04-25T01:25:41;97906.97;;;15.92;55.65
68137;BME280;54939;50.826;9.030;2023-04-25T01:26:12;97908.63;;;15.93;55.48
68137;BME280;54939;50.826;9.030;2023-04-25T01:26:42;97912.34;;;15.92;55.69
68137;BME280;54939;50.826;9.030;2023-04-25T01:27:19;97904.28;;;15.92;55.59
68137;BME280;54939;50.826;9.030;2023-04-25T01:27:50;97902.63;;;15.91;55.69
68137;BME280;54939;50.826;9.030;2023-04-25T01:28:21;97907.16;;;15.91;55.51
68137;BME280;54939;50.826;9.030;2023-04-25T01:28:52;97907.16;;;15.91;55.51
68137;BME280;54939;50.826;9.030;2023-04-25T01:29:22;97908.00;;;15.91;55.62
68137;BME280;54939;50.826;9.030;2023-04-25T01:29:53;97900.75;;;15.92;55.65
68137;BME280;54939;50.826;9.030;2023-04-25T01:30:25;97900.75;;;15.92;55.67
68137;BME280;54939;50.826;9.030;2023-04-25T01:30:56;97906.38;;;15.90;55.66
68137;BME280;54939;50.826;9.030;2023-04-25T01:31:27;97908.00;;;15.91;55.56
68137;BME280;54939;50.826;9.030;2023-04-25T01:31:57;97908.22;;;15.90;55.56
68137;BME280;54939;50.826;9.030;2023-04-25T01:32:29;97903.69;;;15.90;55.59
68137;BME280;54939;50.826;9.030;2023-04-25T01:33:01;97911.75;;;15.90;55.69
68137;BME280;54939;50.826;9.030;2023-04-25T01:33:34;97905.31;;;15.91;55.51
68137;BME280;54939;50.826;9.030;2023-04-25T01:34:04;97904.47;;;15.91;55.65
68137;BME280;54939;50.826;9.030;2023-04-25T01:34:34;97909.06;;;15.90;55.57
68137;BME280;54939;50.826;9.030;2023-04-25T01:35:06;97909.06;;;15.90;55.63
68137;BME280;54939;50.826;9.030;2023-04-25T01:35:39;97911.75;;;15.90;55.78
68137;BME280;54939;50.826;9.030;2023-04-25T01:36:10;97903.69;;;15.90;55.53
68137;BME280;54939;50.826;9.030;2023-04-25T01:36:40;97905.53;;;15.90;55.67
68137;BME280;54939;50.826;9.030;2023-04-25T01:37:11;97910.91;;;15.90;55.71
68137;BME280;54939;50.826;9.030;2023-04-25T01:37:42;97915.47;;;15.89;55.57
68137;BME280;54939;50.826;9.030;2023-04-25T01:38:12;97910.09;;;15.89;55.76
68137;BME280;54939;50.826;9.030;2023-04-25T01:38:43;97912.78;;;15.89;55.82
68137;BME280;54939;50.826;9.030;2023-04-25T01:39:13;97911.94;;;15.89;55.54
68137;BME280;54939;50.826;9.030;2023-04-25T01:39:45;97911.75;;;15.90;55.74
68137;BME280;54939;50.826;9.030;2023-04-25T01:40:15;97907.41;;;15.89;55.53
68137;BME280;54939;50.826;9.030;2023-04-25T01:40:45;97908.22;;;15.90;55.60
68137;BME280;54939;50.826;9.030;2023-04-25T01:41:17;97910.91;;;15.90;55.52
68137;BME280;54939;50.826;9.030;2023-04-25T01:41:47;97907.41;;;15.89;55.53
68137;BME280;54939;50.826;9.030;2023-04-25T01:42:18;97913.81;;;15.88;55.66
68137;BME280;54939;50.826;9.030;2023-04-25T01:42:48;97908.44;;;15.88;55.67
68137;BME280;54939;50.826;9.030;2023-04-25T01:43:19;97911.94;;;15.89;55.71
68137;BME280;54939;50.826;9.030;2023-04-25T01:43:49;97919.19;;;15.88;55.69
68137;BME280;54939;50.826;9.030;2023-04-25T01:44:19;97912.97;;;15.88;55.48
68137;BME280;54939;50.826;9.030;2023-04-25T01:44:50;97912.97;;;15.88;55.57
68137;BME280;54939;50.826;9.030;2023-04-25T01:45:20;97914.66;;;15.89;55.70
68137;BME280;54939;50.826;9.030;2023-04-25T01:45:50;97914.84;;;15.87;55.61
68137;BME280;54939;50.826;9.030;2023-04-25T01:46:21;97926.44;;;15.88;55.61
68137;BME280;54939;50.826;9.030;2023-04-25T01:46:51;97912.97;;;15.88;55.68
68137;BME280;54939;50.826;9.030;2023-04-25T01:47:21;97921.88;;;15.88;55.56
68137;BME280;54939;50.826;9.030;2023-04-25T01:47:51;97915.69;;;15.88;55.50
68137;BME280;54939;50.826;9.030;2023-04-25T01:48:22;97913.81;;;15.88;55.67
68137;BME280;54939;50.826;9.030;2023-04-25T01:48:52;97912.97;;;15.88;55.67
68137;BME280;54939;50.826;9.030;2023-04-25T01:49:22;97909.47;;;15.87;55.69
68137;BME280;54939;50.826;9.030;2023-04-25T01:49:53;97914.84;;;15.87;55.59
68137;BME280;54939;50.826;9.030;2023-04-25T01:50:23;97905.09;;;15.86;55.65
68137;BME280;54939;50.826;9.030;2023-04-25T01:50:54;97906.97;;;15.86;55.75
68137;BME280;54939;50.826;9.030;2023-04-25T01:51:24;97911.31;;;15.87;55.53
68137;BME280;54939;50.826;9.030;2023-04-25T01:51:54;97912.34;;;15.86;55.59
68137;BME280;54939;50.826;9.030;2023-04-25T01:52:24;97910.50;;;15.86;55.51
68137;BME280;54939;50.826;9.030;2023-04-25T01:52:54;97907.16;;;15.84;55.61
68137;BME280;54939;50.826;9.030;2023-04-25T01:53:25;97908.00;;;15.85;55.57
68137;BME280;54939;50.826;9.030;2023-04-25T01:53:56;97909.66;;;15.86;55.39
68137;BME280;54939;50.826;9.030;2023-04-25T01:54:26;97909.66;;;15.86;55.59
68137;BME280;54939;50.826;9.030;2023-04-25T01:54:57;97906.97;;;15.86;55.61
68137;BME280;54939;50.826;9.030;2023-04-25T01:55:28;97910.69;;;15.85;55.55
68137;BME280;54939;50.826;9.030;2023-04-25T01:55:58;97906.13;;;15.85;55.54
68137;BME280;54939;50.826;9.030;2023-04-25T01:56:31;97903.44;;;15.85;55.59
68137;BME280;54939;50.826;9.030;2023-04-25T01:57:02;97912.56;;;15.84;55.50
68137;BME280;54939;50.826;9.030;2023-04-25T01:57:33;97901.78;;;15.84;55.65
68137;BME280;54939;50.826;9.030;2023-04-25T01:58:03;97912.34;;;15.86;55.57
68137;BME280;54939;50.826;9.030;2023-04-25T01:58:33;97906.97;;;15.86;55.51
68137;BME280;54939;50.826;9.030;2023-04-25T01:59:04;97906.97;;;15.86;55.66
68137;BME280;54939;50.826;9.030;2023-04-25T01:59:34;97904.28;;;15.86;55.66
68137;BME280;54939;50.826;9.030;2023-04-25T02:00:05;97905.31;;;15.85;55.59
68137;BME280;54939;50.826;9.030;2023-04-25T02:00:36;97901.78;;;15.84;55.65
68137;BME280;54939;50.826;9.030;2023-04-25T02:01:08;97900.75;;;15.85;55.53
68137;BME280;54939;50.826;9.030;2023-04-25T02:01:38;97906.97;;;15.86;55.59
68137;BME280;54939;50.826;9.030;2023-04-25T02:02:09;97902.63;;;15.85;55.54
68137;BME280;54939;50.826;9.030;2023-04-25T02:02:39;97897.22;;;15.85;55.67
68137;BME280;54939;50.826;9.030;2023-04-25T02:03:10;97905.31;;;15.85;55.55
68137;BME280;54939;50.826;9.030;2023-04-25T02:03:40;97901.78;;;15.84;55.64
68137;BME280;54939;50.826;9.030;2023-04-25T02:04:10;97905.31;;;15.85;55.59
68137;BME280;54939;50.826;9.030;2023-04-25T02:04:40;97908.00;;;15.85;55.64
68137;BME280;54939;50.826;9.030;2023-04-25T02:05:11;97903.66;;;15.84;55.65
68137;BME280;54939;50.826;9.030;2023-04-25T02:05:41;97902.63;;;15.85;55.63
68137;BME280;54939;50.826;9.030;2023-04-25T02:06:11;97902.63;;;15.85;55.55
68137;BME280;54939;50.826;9.030;2023-04-25T02:06:41;97899.09;;;15.84;55.61
68137;BME280;54939;50.826;9.030;2023-04-25T02:07:12;97896.41;;;15.84;55.54
68137;BME280;54939;50.826;9.030;2023-04-25T02:07:42;97901.78;;;15.84;55.47
68137;BME280;54939;50.826;9.030;2023-04-25T02:08:12;97903.44;;;15.85;55.53
68137;BME280;54939;50.826;9.030;2023-04-25T02:08:42;97898.25;;;15.84;55.68
68137;BME280;54939;50.826;9.030;2023-04-25T02:09:12;97898.50;;;15.82;55.63
68137;BME280;54939;50.826;9.030;2023-04-25T02:09:43;97902.84;;;15.83;55.47
68137;BME280;54939;50.826;9.030;2023-04-25T02:10:13;97902.03;;;15.83;55.68
68137;BME280;54939;50.826;9.030;2023-04-25T02:10:43;97903.88;;;15.82;55.72
68137;BME280;54939;50.826;9.030;2023-04-25T02:11:13;97902.84;;;15.83;55.62
68137;BME280;54939;50.826;9.030;2023-04-25T02:11:44;97908.22;;;15.83;55.58
68137;BME280;54939;50.826;9.030;2023-04-25T02:12:14;97899.31;;;15.83;55.71
68137;BME280;54939;50.826;9.030;2023-04-25T02:12:44;97900.16;;;15.83;55.53
68137;BME280;54939;50.826;9.030;2023-04-25T02:13:14;97905.53;;;15.83;55.67
68137;BME280;54939;50.826;9.030;2023-04-25T02:13:45;97900.16;;;15.83;55.51
68137;BME280;54939;50.826;9.030;2023-04-25T02:14:15;97898.25;;;15.84;55.57
68137;BME280;54939;50.826;9.030;2023-04-25T02:14:45;97899.31;;;15.83;55.51
68137;BME280;54939;50.826;9.030;2023-04-25T02:15:15;97901.19;;;15.82;55.54
68137;BME280;54939;50.826;9.030;2023-04-25T02:15:45;97896.84;;;15.81;55.73
68137;BME280;54939;50.826;9.030;2023-04-25T02:16:16;97897.66;;;15.82;55.55
68137;BME280;54939;50.826;9.030;2023-04-25T02:16:46;97901.38;;;15.81;55.68
68137;BME280;54939;50.826;9.030;2023-04-25T02:17:17;97897.66;;;15.82;55.62
68137;BME280;54939;50.826;9.030;2023-04-25T02:17:47;97892.47;;;15.80;55.77
68137;BME280;54939;50.826;9.030;2023-04-25T02:18:18;97894.16;;;15.81;55.61
68137;BME280;54939;50.826;9.030;2023-04-25T02:18:49;97897.88;;;15.80;55.68
68137;BME280;54939;50.826;9.030;2023-04-25T02:19:22;97897.88;;;15.80;55.56
68137;BME280;54939;50.826;9.030;2023-04-25T02:19:52;97894.34;;;15.80;55.61
68137;BME280;54939;50.826;9.030;2023-04-25T02:20:24;97888.97;;;15.80;55.71
68137;BME280;54939;50.826;9.030;2023-04-25T02:20:54;97901.38;;;15.81;55.77
68137;BME280;54939;50.826;9.030;2023-04-25T02:21:24;97894.34;;;15.80;55.75
68137;BME280;54939;50.826;9.030;2023-04-25T02:21:56;97891.66;;;15.80;55.62
68137;BME280;54939;50.826;9.030;2023-04-25T02:22:27;97895.16;;;15.80;55.66
68137;BME280;54939;50.826;9.030;2023-04-25T02:23:00;97893.50;;;15.79;55.62
68137;BME280;54939;50.826;9.030;2023-04-25T02:23:30;97901.59;;;15.79;55.70
68137;BME280;54939;50.826;9.030;2023-04-25T02:24:00;97896.19;;;15.79;55.72
68137;BME280;54939;50.826;9.030;2023-04-25T02:24:30;97901.59;;;15.79;55.69
68137;BME280;54939;50.826;9.030;2023-04-25T02:25:02;97897.88;;;15.80;55.59
68137;BME280;54939;50.826;9.030;2023-04-25T02:25:34;97893.50;;;15.79;55.47
68137;BME280;54939;50.826;9.030;2023-04-25T02:26:04;97897.22;;;15.78;55.67
68137;BME280;54939;50.826;9.030;2023-04-25T02:26:35;97897.03;;;15.80;55.51
68137;BME280;54939;50.826;9.030;2023-04-25T02:27:05;97895.38;;;15.79;55.44
68137;BME280;54939;50.826;9.030;2023-04-25T02:27:35;97894.53;;;15.78;55.33
68137;BME280;54939;50.826;9.030;2023-04-25T02:28:06;97900.75;;;15.79;55.40
68137;BME280;54939;50.826;9.030;2023-04-25T02:28:36;97898.06;;;15.79;55.62
68137;BME280;54939;50.826;9.030;2023-04-25T02:29:06;97896.19;;;15.79;55.56
68137;BME280;54939;50.826;9.030;2023-04-25T02:29:37;97898.25;;;15.77;55.53
68137;BME280;54939;50.826;9.030;2023-04-25T02:30:07;97903.44;;;15.79;55.56
68137;BME280;54939;50.826;9.030;2023-04-25T02:30:37;97895.38;;;15.79;55.65
68137;BME280;54939;50.826;9.030;2023-04-25T02:31:07;97899.94;;;15.78;55.52
68137;BME280;54939;50.826;9.030;2023-04-25T02:31:38;97893.72;;;15.77;55.55
68137;BME280;54939;50.826;9.030;2023-04-25T02:32:08;97895.38;;;15.79;55.51
68137;BME280;54939;50.826;9.030;2023-04-25T02:32:38;97898.91;;;15.79;55.64
68137;BME280;54939;50.826;9.030;2023-04-25T02:33:09;97900.94;;;15.77;55.56
68137;BME280;54939;50.826;9.030;2023-04-25T02:33:39;97894.75;;;15.76;55.55
68137;BME280;54939;50.826;9.030;2023-04-25T02:34:09;97901.78;;;15.77;55.40
68137;BME280;54939;50.826;9.030;2023-04-25T02:34:40;97890.41;;;15.75;55.25
68137;BME280;54939;50.826;9.030;2023-04-25T02:35:10;97892.06;;;15.76;55.25
68137;BME280;54939;50.826;9.030;2023-04-25T02:35:40;97899.31;;;15.76;55.19
68137;BME280;54939;50.826;9.030;2023-04-25T02:36:10;97887.72;;;15.75;55.47
68137;BME280;54939;50.826;9.030;2023-04-25T02:36:40;97890.41;;;15.75;55.30
68137;BME280;54939;50.826;9.030;2023-04-25T02:37:11;97893.13;;;15.75;55.32
68137;BME280;54939;50.826;9.030;2023-04-25T02:37:42;97890.41;;;15.75;55.44
68137;BME280;54939;50.826;9.030;2023-04-25T02:38:12;97890.19;;;15.77;55.36
68137;BME280;54939;50.826;9.030;2023-04-25T02:38:42;97890.41;;;15.75;55.47
68137;BME280;54939;50.826;9.030;2023-04-25T02:39:12;97895.81;;;15.75;55.58
68137;BME280;54939;50.826;9.030;2023-04-25T02:39:42;97893.94;;;15.76;55.67
68137;BME280;54939;50.826;9.030;2023-04-25T02:40:12;97904.72;;;15.76;55.42
68137;BME280;54939;50.826;9.030;2023-04-25T02:40:43;97886.91;;;15.75;55.37
68137;BME280;54939;50.826;9.030;2023-04-25T02:41:13;97900.13;;;15.76;55.42
68137;BME280;54939;50.826;9.030;2023-04-25T02:41:43;97894.53;;;15.78;55.52
68137;BME280;54939;50.826;9.030;2023-04-25T02:42:13;97894.75;;;15.76;55.37